Time;durP1;ratioP1;P1;durP2;ratioP2;P2;SDS_P1;SDS_P2;PMS_P1;PMS_P2;Temp;Humidity;BMP_temperature;BMP_pressure;BME280_temperature;BME280_humidity;BME280_pressure;Samples;Min_cycle;Max_cycle;Signal;HPM_P1;HPM_P2
2022/03/24 00:02:22;;;;;;;60.60;39.53;;;;;;;3.21;100.00;102858.84;5264276;28;20120;-79
2022/03/24 00:04:54;;;;;;;67.07;41.33;;;;;;;3.13;100.00;102869.59;5265084;28;20031;-79
2022/03/24 00:07:25;;;;;;;62.55;41.50;;;;;;;3.01;100.00;102872.59;5282338;28;20029;-79
2022/03/24 00:09:56;;;;;;;61.13;39.60;;;;;;;2.55;100.00;102852.81;5264170;28;20059;-79
2022/03/24 00:12:27;;;;;;;57.05;36.20;;;;;;;2.97;100.00;102868.34;5282086;28;20024;-79
2022/03/24 00:14:59;;;;;;;65.70;43.42;;;;;;;2.91;100.00;102871.13;5278989;28;20737;-79
2022/03/24 00:17:31;;;;;;;55.08;37.38;;;;;;;2.54;100.00;102870.38;5282323;28;20037;-79
2022/03/24 00:20:03;;;;;;;63.72;39.78;;;;;;;2.43;100.00;102872.41;5276840;28;20035;-79
2022/03/24 00:22:35;;;;;;;66.38;41.10;;;;;;;2.56;100.00;102871.22;5279987;28;20056;-79
2022/03/24 00:25:06;;;;;;;59.58;39.80;;;;;;;2.42;100.00;102860.13;5264452;28;20100;-79
2022/03/24 00:27:39;;;;;;;56.13;37.22;;;;;;;2.33;100.00;102866.53;5263710;28;20094;-79
2022/03/24 00:30:12;;;;;;;64.03;38.65;;;;;;;2.34;100.00;102854.22;5282004;28;20040;-79
2022/03/24 00:32:43;;;;;;;60.47;38.42;;;;;;;2.25;100.00;102863.22;5282885;28;20039;-79
2022/03/24 00:35:15;;;;;;;60.05;37.22;;;;;;;2.23;100.00;102871.16;5264538;28;20021;-79
2022/03/24 00:37:46;;;;;;;63.05;40.22;;;;;;;2.10;100.00;102867.09;5280990;28;20041;-79
2022/03/24 00:40:18;;;;;;;58.05;37.88;;;;;;;2.04;100.00;102865.50;5273943;28;20032;-79
2022/03/24 00:42:50;;;;;;;51.00;34.13;;;;;;;2.04;100.00;102856.75;5280765;28;20025;-79
2022/03/24 00:45:22;;;;;;;62.42;40.13;;;;;;;2.21;100.00;102861.56;5263281;28;20116;-79
2022/03/24 00:47:53;;;;;;;64.22;41.78;;;;;;;2.21;100.00;102844.00;5282202;28;20115;-79
2022/03/24 00:50:25;;;;;;;53.78;36.35;;;;;;;2.14;100.00;102862.63;5274103;28;20057;-79
2022/03/24 00:52:56;;;;;;;60.00;38.00;;;;;;;2.03;100.00;102860.25;5261073;28;20020;-79
2022/03/24 00:55:28;;;;;;;54.03;35.17;;;;;;;2.13;100.00;102859.13;5282548;28;20064;-79
2022/03/24 00:57:59;;;;;;;57.17;36.63;;;;;;;1.89;100.00;102860.59;5263355;28;20033;-79
2022/03/24 01:00:31;;;;;;;60.67;38.38;;;;;;;2.08;100.00;102851.34;5282515;28;20029;-79
2022/03/24 01:03:06;;;;;;;66.78;39.25;;;;;;;1.99;100.00;102846.31;5278692;28;20040;-79
2022/03/24 01:05:38;;;;;;;67.85;42.28;;;;;;;2.16;100.00;102848.53;5282230;28;20075;-79
2022/03/24 01:08:09;;;;;;;60.97;42.03;;;;;;;2.24;100.00;102837.78;5282092;28;20491;-79
2022/03/24 01:10:41;;;;;;;60.65;38.20;;;;;;;2.10;100.00;102845.19;5283006;28;20025;-79
2022/03/24 01:13:12;;;;;;;70.72;39.88;;;;;;;2.06;100.00;102847.88;5280871;28;20021;-79
2022/03/24 01:15:45;;;;;;;60.95;37.58;;;;;;;1.89;100.00;102845.69;5255666;28;20056;-79
2022/03/24 01:18:18;;;;;;;67.97;41.47;;;;;;;1.93;100.00;102843.84;5282737;28;20083;-79
2022/03/24 01:20:50;;;;;;;61.78;37.60;;;;;;;1.86;100.00;102852.78;5263539;28;20107;-79
2022/03/24 01:23:23;;;;;;;54.17;34.35;;;;;;;1.87;100.00;102839.56;5285285;28;20045;-79
2022/03/24 01:25:54;;;;;;;69.18;38.35;;;;;;;1.84;100.00;102842.31;5260549;28;20064;-79
2022/03/24 01:28:27;;;;;;;44.97;29.48;;;;;;;1.85;100.00;102841.38;5266336;28;20025;-79
2022/03/24 01:30:58;;;;;;;50.45;31.80;;;;;;;1.88;100.00;102840.47;5285969;28;20036;-79
2022/03/24 01:33:30;;;;;;;56.45;37.50;;;;;;;1.67;100.00;102839.19;5284695;28;20528;-79
2022/03/24 01:36:01;;;;;;;63.70;38.28;;;;;;;1.77;100.00;102835.47;5285624;28;20095;-79
2022/03/24 01:38:32;;;;;;;57.03;35.05;;;;;;;1.52;100.00;102832.50;5284743;28;20045;-79
2022/03/24 01:41:07;;;;;;;47.67;30.95;;;;;;;1.50;100.00;102829.06;5285471;28;20037;-79
2022/03/24 01:43:42;;;;;;;51.53;34.45;;;;;;;1.48;100.00;102822.97;5284653;28;20060;-79
2022/03/24 01:46:13;;;;;;;47.53;28.52;;;;;;;1.53;100.00;102821.09;5268026;28;20743;-79
2022/03/24 01:48:46;;;;;;;64.97;39.72;;;;;;;1.54;100.00;102822.81;5284667;28;20057;-79
2022/03/24 01:51:17;;;;;;;65.93;38.60;;;;;;;1.61;100.00;102813.03;5283730;28;20029;-79
2022/03/24 01:53:48;;;;;;;46.78;30.02;;;;;;;1.75;100.00;102821.44;5284914;28;20036;-79
2022/03/24 01:56:20;;;;;;;60.03;36.95;;;;;;;1.63;100.00;102817.38;5285542;28;20031;-79
2022/03/24 01:58:53;;;;;;;65.72;38.25;;;;;;;1.74;100.00;102817.09;5284094;28;20021;-79
2022/03/24 02:01:27;;;;;;;75.65;42.45;;;;;;;1.77;100.00;102813.53;5284779;28;20415;-79
2022/03/24 02:04:00;;;;;;;64.57;37.50;;;;;;;2.11;100.00;102812.69;5281983;28;20037;-79
2022/03/24 02:06:32;;;;;;;45.63;29.80;;;;;;;2.14;100.00;102808.22;5266968;28;20040;-79
2022/03/24 02:09:04;;;;;;;49.78;31.48;;;;;;;2.16;100.00;102813.44;5285025;28;20048;-79
2022/03/24 02:11:36;;;;;;;49.47;32.35;;;;;;;2.10;100.00;102809.19;5265731;28;20029;-79
2022/03/24 02:14:08;;;;;;;46.13;31.45;;;;;;;2.23;100.00;102807.97;5283553;28;20025;-79
2022/03/24 02:16:41;;;;;;;68.47;40.58;;;;;;;2.02;100.00;102811.16;5285327;28;20036;-79
2022/03/24 02:19:16;;;;;;;65.70;40.75;;;;;;;1.97;100.00;102807.78;5284888;28;20033;-79
2022/03/24 02:21:50;;;;;;;58.78;36.80;;;;;;;1.63;100.00;102809.47;5285063;28;20025;-79
2022/03/24 02:24:23;;;;;;;43.58;28.42;;;;;;;1.93;100.00;102800.84;5285116;28;20100;-79
2022/03/24 02:26:59;;;;;;;64.63;40.88;;;;;;;1.73;100.00;102804.84;5279501;28;20939;-79
2022/03/24 02:29:30;;;;;;;60.95;38.58;;;;;;;1.74;100.00;102813.63;5276233;28;20040;-79
2022/03/24 02:32:07;;;;;;;69.93;42.65;;;;;;;1.82;100.00;102812.53;5284962;28;20021;-79
2022/03/24 02:34:47;;;;;;;62.10;39.95;;;;;;;1.74;100.00;102817.09;5284115;28;20021;-79
2022/03/24 02:37:21;;;;;;;66.95;38.55;;;;;;;1.70;100.00;102813.69;5276357;28;20398;-78
2022/03/24 02:39:54;;;;;;;48.67;31.58;;;;;;;1.87;100.00;102815.03;5266237;28;20033;-78
2022/03/24 02:42:30;;;;;;;68.28;38.90;;;;;;;1.68;100.00;102810.22;5264820;28;20029;-78
2022/03/24 02:45:05;;;;;;;62.88;37.65;;;;;;;1.54;100.00;102819.34;5284292;28;20377;-78
2022/03/24 02:47:36;;;;;;;50.35;31.98;;;;;;;1.72;100.00;102811.03;5284150;28;20381;-79
2022/03/24 02:50:09;;;;;;;47.80;30.90;;;;;;;1.90;100.00;102814.97;5284697;28;20029;-79
2022/03/24 02:52:40;;;;;;;54.67;33.20;;;;;;;1.93;100.00;102816.63;5284069;28;20032;-78
2022/03/24 02:55:11;;;;;;;59.55;36.17;;;;;;;2.02;100.00;102816.44;5284047;28;20389;-78
2022/03/24 02:57:43;;;;;;;54.60;31.13;;;;;;;1.91;100.00;102807.91;5283236;28;20021;-78
2022/03/24 03:00:15;;;;;;;54.50;34.55;;;;;;;1.70;100.00;102815.44;5284552;28;20021;-78
2022/03/24 03:02:47;;;;;;;49.58;30.38;;;;;;;1.86;100.00;102811.53;5274344;28;20029;-79
2022/03/24 03:05:18;;;;;;;59.60;36.72;;;;;;;1.59;100.00;102809.56;5263505;28;20028;-79
2022/03/24 03:07:51;;;;;;;47.55;31.15;;;;;;;1.69;100.00;102814.56;5265022;28;20067;-78
2022/03/24 03:10:22;;;;;;;49.60;29.02;;;;;;;1.54;100.00;102801.78;5288807;28;20079;-78
2022/03/24 03:12:54;;;;;;;49.38;30.13;;;;;;;1.54;100.00;102816.72;5306009;28;20020;-79
2022/03/24 03:15:25;;;;;;;56.17;34.63;;;;;;;1.13;100.00;102814.09;5305140;28;20035;-78
2022/03/24 03:17:57;;;;;;;55.60;34.97;;;;;;;1.29;100.00;102798.84;5305723;28;20055;-78
2022/03/24 03:20:28;;;;;;;67.90;39.25;;;;;;;1.11;100.00;102816.75;5305484;28;20033;-76
2022/03/24 03:23:03;;;;;;;50.38;31.70;;;;;;;0.91;100.00;102788.28;5303908;28;20089;-79
2022/03/24 03:25:35;;;;;;;65.63;39.35;;;;;;;0.96;100.00;102811.81;5266590;28;20033;-79
2022/03/24 03:28:07;;;;;;;72.47;40.05;;;;;;;1.00;100.00;102818.78;5282841;28;20078;-78
2022/03/24 03:30:38;;;;;;;49.25;30.27;;;;;;;1.15;100.00;102814.94;5284249;28;20060;-78
2022/03/24 03:33:10;;;;;;;62.72;36.53;;;;;;;0.98;100.00;102810.03;5265144;28;20025;-78
2022/03/24 03:35:43;;;;;;;54.75;33.42;;;;;;;1.11;100.00;102815.91;5283851;28;20032;-78
2022/03/24 03:38:15;;;;;;;65.75;38.65;;;;;;;1.29;100.00;102804.97;5282750;28;20041;-78
2022/03/24 03:40:47;;;;;;;66.60;39.22;;;;;;;1.12;100.00;102817.63;5283479;28;20040;-78
2022/03/24 03:43:19;;;;;;;51.35;30.85;;;;;;;1.42;100.00;102823.09;5282660;28;20363;-78
2022/03/24 03:45:50;;;;;;;57.38;33.72;;;;;;;1.48;100.00;102818.56;5281455;28;20033;-78
2022/03/24 03:48:21;;;;;;;64.63;33.10;;;;;;;1.53;100.00;102805.31;5282944;28;20051;-79
2022/03/24 03:50:53;;;;;;;77.32;41.67;;;;;;;1.51;100.00;102818.50;5283356;28;20113;-79
2022/03/24 03:53:24;;;;;;;63.90;38.17;;;;;;;1.63;100.00;102811.22;5283013;28;20036;-79
2022/03/24 03:55:55;;;;;;;65.40;40.22;;;;;;;1.73;100.00;102819.78;5282350;28;20124;-79
2022/03/24 03:58:26;;;;;;;74.35;42.13;;;;;;;1.70;100.00;102810.16;5282257;28;20067;-79
2022/03/24 04:00:58;;;;;;;60.08;35.50;;;;;;;2.01;100.00;102819.94;5283597;28;20091;-79
2022/03/24 04:03:31;;;;;;;65.78;38.60;;;;;;;2.01;100.00;102822.59;5265155;28;20076;-79
2022/03/24 04:06:05;;;;;;;47.22;30.40;;;;;;;1.95;100.00;102820.97;5250990;28;20473;-79
2022/03/24 04:08:38;;;;;;;59.35;39.22;;;;;;;2.06;100.00;102821.56;5283125;28;20048;-79
2022/03/24 04:11:12;;;;;;;66.15;41.45;;;;;;;1.85;100.00;102817.69;5283742;28;20021;-79
2022/03/24 04:13:43;;;;;;;63.47;39.03;;;;;;;1.74;100.00;102827.63;5281660;28;20120;-79
2022/03/24 04:16:15;;;;;;;63.28;38.38;;;;;;;1.72;100.00;102818.03;5282869;28;20029;-79
2022/03/24 04:18:46;;;;;;;51.78;32.65;;;;;;;1.73;100.00;102817.13;5282700;28;20029;-79
2022/03/24 04:21:20;;;;;;;71.30;42.05;;;;;;;1.63;100.00;102819.09;5281851;28;20754;-79
2022/03/24 04:23:52;;;;;;;59.92;38.13;;;;;;;1.45;100.00;102817.78;5282735;28;20017;-79
2022/03/24 04:26:23;;;;;;;47.05;30.25;;;;;;;1.42;100.00;102821.38;5282678;28;20052;-79
2022/03/24 04:28:54;;;;;;;60.38;36.97;;;;;;;1.23;100.00;102823.53;5281866;28;20120;-79
2022/03/24 04:31:25;;;;;;;64.00;39.22;;;;;;;1.40;100.00;102819.66;5283361;28;20029;-79
2022/03/24 04:33:57;;;;;;;60.28;37.85;;;;;;;0.94;100.00;102825.00;5271400;28;20032;-79
2022/03/24 04:36:28;;;;;;;59.10;35.88;;;;;;;1.20;100.00;102820.97;5246059;28;20026;-79
2022/03/24 04:39:02;;;;;;;51.58;29.88;;;;;;;1.21;100.00;102813.94;5262756;28;20043;-79
2022/03/24 04:41:34;;;;;;;50.85;29.75;;;;;;;1.28;100.00;102821.66;5282663;28;20025;-79
2022/03/24 04:44:05;;;;;;;58.65;33.03;;;;;;;1.27;100.00;102816.44;5281892;28;20048;-79
2022/03/24 04:46:37;;;;;;;63.28;37.38;;;;;;;1.35;100.00;102824.16;5281723;28;20017;-78
2022/03/24 04:49:09;;;;;;;60.10;33.72;;;;;;;1.56;100.00;102821.03;5282043;28;20033;-78
2022/03/24 04:51:40;;;;;;;64.93;38.40;;;;;;;1.57;100.00;102820.13;5280934;28;20017;-79
2022/03/24 04:54:11;;;;;;;67.10;40.72;;;;;;;1.56;100.00;102815.78;5282005;28;20025;-78
2022/03/24 04:56:44;;;;;;;63.80;36.33;;;;;;;1.58;100.00;102827.13;5267400;28;20021;-78
2022/03/24 04:59:15;;;;;;;54.90;34.25;;;;;;;1.65;100.00;102819.97;5273423;28;20029;-78
2022/03/24 05:01:47;;;;;;;54.65;34.03;;;;;;;1.69;100.00;102822.47;5282140;28;20025;-78
2022/03/24 05:04:18;;;;;;;59.83;36.22;;;;;;;1.64;100.00;102824.34;5282920;28;20025;-77
2022/03/24 05:06:50;;;;;;;63.05;37.30;;;;;;;1.72;100.00;102829.44;5306683;28;20064;-78
2022/03/24 05:09:22;;;;;;;54.55;33.72;;;;;;;1.62;100.00;102828.78;5303113;28;20048;-79
2022/03/24 05:11:53;;;;;;;58.03;34.47;;;;;;;1.57;100.00;102824.53;5302043;28;20160;-79
2022/03/24 05:14:24;;;;;;;53.92;33.33;;;;;;;1.52;100.00;102832.50;5296324;28;20128;-78
2022/03/24 05:16:55;;;;;;;57.10;34.72;;;;;;;1.57;100.00;102830.66;5296443;28;20100;-78
2022/03/24 05:19:27;;;;;;;57.63;34.80;;;;;;;1.29;100.00;102833.03;5284377;28;20045;-79
2022/03/24 05:22:00;;;;;;;55.40;34.70;;;;;;;1.09;100.00;102813.31;5282037;28;20435;-79
2022/03/24 05:24:31;;;;;;;51.42;32.17;;;;;;;1.25;100.00;102826.97;5263130;28;20029;-78
2022/03/24 05:27:03;;;;;;;54.15;33.88;;;;;;;1.17;100.00;102833.31;5281764;28;20086;-79
2022/03/24 05:29:34;;;;;;;56.10;32.33;;;;;;;1.05;100.00;102837.06;5286342;28;20529;-77
2022/03/24 05:32:06;;;;;;;56.28;33.45;;;;;;;0.97;100.00;102834.59;5302533;28;20470;-77
2022/03/24 05:34:37;;;;;;;59.67;33.63;;;;;;;0.97;100.00;102839.00;5299533;28;20025;-78
2022/03/24 05:37:09;;;;;;;66.30;35.65;;;;;;;0.90;100.00;102839.09;5305394;28;20059;-78
2022/03/24 05:39:42;;;;;;;64.22;35.50;;;;;;;0.80;100.00;102850.69;5281754;28;20040;-79
2022/03/24 05:42:13;;;;;;;76.25;37.08;;;;;;;0.88;100.00;102835.66;5295541;28;20087;-78
2022/03/24 05:44:45;;;;;;;66.07;36.42;;;;;;;0.74;100.00;102850.81;5280448;28;20025;-78
2022/03/24 05:47:17;;;;;;;64.93;36.47;;;;;;;0.68;100.00;102854.41;5270817;28;20029;-78
2022/03/24 05:49:48;;;;;;;58.30;35.95;;;;;;;0.50;100.00;102850.38;5282293;28;20100;-78
2022/03/24 05:52:20;;;;;;;61.03;35.55;;;;;;;0.86;100.00;102842.69;5282197;28;20029;-79
2022/03/24 05:54:52;;;;;;;62.08;35.88;;;;;;;1.02;100.00;102848.50;5283243;28;20021;-78
2022/03/24 05:57:23;;;;;;;69.95;38.22;;;;;;;1.07;100.00;102849.28;5272524;28;20029;-78
2022/03/24 05:59:55;;;;;;;77.95;40.30;;;;;;;1.29;100.00;102854.94;5277428;28;20021;-79
2022/03/24 06:02:26;;;;;;;78.82;40.67;;;;;;;1.40;100.00;102862.56;5265620;28;20072;-77
2022/03/24 06:04:58;;;;;;;75.60;41.13;;;;;;;1.42;100.00;102849.41;5283784;28;20029;-78
2022/03/24 06:07:30;;;;;;;75.18;42.00;;;;;;;1.56;100.00;102862.25;5281059;28;20037;-79
2022/03/24 06:10:01;;;;;;;88.65;45.13;;;;;;;1.12;100.00;102838.66;5260632;28;20043;-79
2022/03/24 06:12:33;;;;;;;84.63;47.70;;;;;;;0.84;100.00;102860.25;5284511;28;20116;-79
2022/03/24 06:15:05;;;;;;;70.55;40.60;;;;;;;1.05;100.00;102863.34;5283276;28;20033;-79
2022/03/24 06:17:37;;;;;;;81.10;47.40;;;;;;;1.05;100.00;102871.22;5284670;28;20012;-79
2022/03/24 06:20:12;;;;;;;74.10;43.40;;;;;;;0.81;100.00;102865.56;5284596;28;20049;-80
2022/03/24 06:22:52;;;;;;;64.97;41.03;;;;;;;1.01;100.00;102870.41;5272649;28;20021;-79
2022/03/24 06:25:23;;;;;;;81.65;42.88;;;;;;;0.77;100.00;102863.88;5267121;28;20381;-79
2022/03/24 06:27:55;;;;;;;73.15;43.58;;;;;;;0.99;100.00;102859.06;5284802;28;20041;-79
2022/03/24 06:30:28;;;;;;;68.47;38.75;;;;;;;1.13;100.00;102859.66;5283704;28;20466;-79
2022/03/24 06:33:00;;;;;;;81.90;44.70;;;;;;;1.27;100.00;102874.28;5284893;28;20025;-80
2022/03/24 06:35:32;;;;;;;70.25;42.72;;;;;;;1.41;100.00;102864.31;5283782;28;20060;-80
2022/03/24 06:38:03;;;;;;;86.57;47.22;;;;;;;1.56;100.00;102865.75;5281273;28;20481;-80
2022/03/24 06:40:35;;;;;;;101.55;50.38;;;;;;;1.74;100.00;102875.00;5280000;28;20401;-78
2022/03/24 06:43:07;;;;;;;78.22;45.30;;;;;;;2.13;100.00;102867.03;5278071;28;20494;-79
2022/03/24 06:45:38;;;;;;;100.15;51.67;;;;;;;2.75;100.00;102868.06;5280214;28;20108;-79
2022/03/24 06:48:10;;;;;;;76.72;47.67;;;;;;;3.54;100.00;102874.56;5264181;28;20029;-78
2022/03/24 06:50:41;;;;;;;76.30;45.42;;;;;;;4.09;100.00;102869.31;5270580;28;20125;-79
2022/03/24 06:53:12;;;;;;;67.40;42.20;;;;;;;4.71;100.00;102868.91;5263162;28;20029;-80
2022/03/24 06:55:44;;;;;;;63.40;42.45;;;;;;;5.24;100.00;102869.63;5283640;28;20040;-80
2022/03/24 06:58:15;;;;;;;60.53;42.10;;;;;;;6.06;100.00;102872.59;5281525;28;42243;-80
2022/03/24 07:00:46;;;;;;;70.57;44.85;;;;;;;6.75;100.00;102874.09;5284165;28;20025;-80
2022/03/24 07:03:17;;;;;;;65.95;44.90;;;;;;;7.27;100.00;102857.59;5274904;28;20025;-80
2022/03/24 07:05:49;;;;;;;71.45;43.53;;;;;;;7.79;100.00;102865.75;5284038;28;20041;-80
2022/03/24 07:08:20;;;;;;;65.15;41.60;;;;;;;8.34;100.00;102867.44;5283316;28;20398;-80
2022/03/24 07:10:52;;;;;;;60.30;39.92;;;;;;;8.78;100.00;102858.97;5276829;28;20478;-81
2022/03/24 07:13:23;;;;;;;59.80;41.28;;;;;;;9.18;100.00;102850.63;5248996;28;20017;-80
2022/03/24 07:15:55;;;;;;;55.22;37.10;;;;;;;9.84;100.00;102852.25;5283557;28;20087;-81
2022/03/24 07:18:26;;;;;;;59.42;35.80;;;;;;;10.38;100.00;102870.47;5280298;28;20128;-81
2022/03/24 07:20:57;;;;;;;63.60;42.17;;;;;;;10.60;100.00;102854.03;5265369;28;20025;-81
2022/03/24 07:23:29;;;;;;;62.45;42.30;;;;;;;10.73;100.00;102863.00;5278967;28;20047;-80
2022/03/24 07:26:01;;;;;;;59.10;41.10;;;;;;;10.95;100.00;102859.00;5278862;28;20025;-79
2022/03/24 07:28:32;;;;;;;56.58;41.95;;;;;;;11.28;100.00;102866.69;5279530;28;20462;-79
2022/03/24 07:31:15;;;;;;;56.85;42.83;;;;;;;11.86;100.00;102864.72;5266329;28;20444;-79
2022/03/24 07:33:47;;;;;;;55.47;42.03;;;;;;;12.19;100.00;102865.28;5283235;28;20029;-79
2022/03/24 07:36:23;;;;;;;52.58;41.45;;;;;;;12.54;100.00;102873.59;5282658;28;20374;-79
2022/03/24 07:38:55;;;;;;;57.47;39.73;;;;;;;13.42;100.00;102862.91;5280878;28;20045;-79
2022/03/24 07:41:27;;;;;;;56.50;41.10;;;;;;;13.54;100.00;102868.34;5283251;28;20032;-79
2022/03/24 07:43:59;;;;;;;50.00;37.22;;;;;;;14.12;100.00;102861.31;5282356;28;20025;-79
2022/03/24 07:46:30;;;;;;;54.05;37.45;;;;;;;15.06;100.00;102863.91;5282995;28;20143;-79
2022/03/24 07:49:02;;;;;;;60.00;37.60;;;;;;;15.61;92.78;102861.28;5264308;28;20025;-80
2022/03/24 07:51:34;;;;;;;53.95;39.45;;;;;;;15.85;99.01;102856.59;5279023;28;20025;-80
2022/03/24 07:54:09;;;;;;;52.65;37.58;;;;;;;16.68;94.92;102874.75;5275883;28;20022;-80
2022/03/24 07:56:41;;;;;;;44.38;35.75;;;;;;;16.50;90.42;102869.13;5276749;28;20033;-80
2022/03/24 07:59:12;;;;;;;48.92;36.58;;;;;;;16.93;77.16;102876.16;5282122;28;20017;-80
2022/03/24 08:01:43;;;;;;;55.53;34.05;;;;;;;17.08;64.43;102865.91;5262627;28;20024;-80
2022/03/24 08:04:15;;;;;;;52.65;37.17;;;;;;;17.73;66.61;102877.13;5269723;28;20063;-79
2022/03/24 08:06:46;;;;;;;55.42;37.05;;;;;;;18.21;67.87;102867.34;5297057;28;20376;-80
2022/03/24 08:09:18;;;;;;;50.55;35.38;;;;;;;18.51;58.12;102874.41;5303908;28;20449;-79
2022/03/24 08:11:49;;;;;;;41.47;32.55;;;;;;;18.97;51.38;102874.56;5267654;28;20338;-80
2022/03/24 08:14:21;;;;;;;50.63;34.70;;;;;;;19.83;50.74;102877.81;5273960;28;20025;-79
2022/03/24 08:16:52;;;;;;;47.03;35.17;;;;;;;20.88;44.57;102883.38;5282709;28;20014;-80
2022/03/24 08:19:23;;;;;;;48.25;34.58;;;;;;;21.68;43.54;102879.41;5280306;28;20091;-80
2022/03/24 08:21:55;;;;;;;49.10;35.00;;;;;;;22.01;41.48;102872.16;5252550;28;20039;-80
2022/03/24 08:24:26;;;;;;;45.22;32.83;;;;;;;22.81;38.59;102876.00;5302407;28;20417;-80
2022/03/24 08:26:57;;;;;;;46.38;33.92;;;;;;;23.18;36.42;102877.25;5293310;28;20096;-80
2022/03/24 08:29:29;;;;;;;46.65;33.67;;;;;;;23.14;34.93;102874.03;5262956;28;20033;-80
2022/03/24 08:32:01;;;;;;;46.08;33.60;;;;;;;23.69;33.57;102880.38;5278903;28;20029;-80
2022/03/24 08:34:33;;;;;;;41.63;33.92;;;;;;;24.01;32.19;102883.06;5282351;28;20059;-80
2022/03/24 08:37:05;;;;;;;38.03;31.65;;;;;;;24.89;29.91;102882.41;5281822;28;20518;-79
2022/03/24 08:39:36;;;;;;;41.60;32.22;;;;;;;25.25;29.79;102887.06;5261589;28;20130;-79
2022/03/24 08:42:08;;;;;;;46.47;32.93;;;;;;;25.93;29.07;102878.56;5275196;28;41781;-79
2022/03/24 08:44:39;;;;;;;40.80;32.28;;;;;;;26.42;27.20;102883.22;5263892;28;20597;-79
2022/03/24 08:47:11;;;;;;;38.77;32.23;;;;;;;27.04;25.82;102875.16;5262808;28;20049;-79
2022/03/24 08:49:42;;;;;;;36.45;30.40;;;;;;;27.01;24.44;102872.84;5243201;28;20264;-79
2022/03/24 08:52:13;;;;;;;38.90;28.80;;;;;;;26.94;23.30;102877.44;5267815;28;20036;-79
2022/03/24 08:54:45;;;;;;;36.85;30.25;;;;;;;27.27;23.28;102882.22;5282206;28;20021;-79
2022/03/24 08:57:16;;;;;;;34.83;30.43;;;;;;;27.61;24.02;102878.56;5263166;28;20551;-79
2022/03/24 08:59:48;;;;;;;34.70;30.85;;;;;;;28.50;23.19;102884.72;5259387;28;20990;-79
2022/03/24 09:02:20;;;;;;;36.58;29.23;;;;;;;29.45;22.50;102886.13;5236401;28;20545;-79
2022/03/24 09:04:52;;;;;;;35.05;30.05;;;;;;;29.57;21.81;102887.09;5272245;28;20024;-79
2022/03/24 09:07:23;;;;;;;36.22;29.88;;;;;;;29.52;21.80;102886.94;5281441;28;20358;-79
2022/03/24 09:09:54;;;;;;;38.07;29.57;;;;;;;30.15;21.34;102895.19;5280827;28;20025;-79
2022/03/24 09:12:25;;;;;;;26.57;23.97;;;;;;;30.80;18.89;102879.31;5260453;28;20760;-79
2022/03/24 09:14:57;;;;;;;27.98;24.98;;;;;;;30.98;19.09;102890.38;5245263;28;20256;-79
2022/03/24 09:17:28;;;;;;;27.10;24.38;;;;;;;32.09;17.97;102892.81;5262055;28;40442;-79
2022/03/24 09:20:00;;;;;;;30.90;26.60;;;;;;;31.99;17.89;102890.59;5276060;28;20075;-79
2022/03/24 09:22:31;;;;;;;28.75;25.77;;;;;;;32.24;17.17;102884.06;5281728;28;20049;-79
2022/03/24 09:25:04;;;;;;;28.50;25.67;;;;;;;32.67;18.04;102891.16;5263169;28;20454;-79
2022/03/24 09:27:36;;;;;;;25.60;23.13;;;;;;;32.18;16.79;102887.78;5263119;28;20060;-79
2022/03/24 09:30:11;;;;;;;25.65;22.85;;;;;;;32.67;16.59;102893.09;5281676;28;20023;-79
2022/03/24 09:32:43;;;;;;;24.35;20.50;;;;;;;34.93;15.27;102889.59;5281754;28;20044;-79
2022/03/24 09:35:15;;;;;;;21.63;19.52;;;;;;;33.67;15.23;102889.03;5281893;28;20504;-79
2022/03/24 09:37:47;;;;;;;22.02;20.02;;;;;;;33.62;16.16;102890.84;5281632;28;20053;-79
2022/03/24 09:40:19;;;;;;;23.73;21.02;;;;;;;34.20;14.01;102888.81;5281245;28;20017;-79
2022/03/24 09:42:51;;;;;;;23.65;20.25;;;;;;;35.14;14.00;102896.22;5281823;28;20421;-80
2022/03/24 09:45:24;;;;;;;20.05;18.25;;;;;;;35.80;12.78;102900.78;5285140;28;20025;-80
2022/03/24 09:47:56;;;;;;;22.67;20.35;;;;;;;36.32;13.24;102891.75;5284427;28;20094;-80
2022/03/24 09:50:28;;;;;;;22.00;20.00;;;;;;;36.07;13.44;102886.84;5285156;28;20029;-80
2022/03/24 09:53:01;;;;;;;20.35;18.20;;;;;;;36.20;12.58;102890.28;5284860;28;20029;-80
2022/03/24 09:55:36;;;;;;;20.65;18.95;;;;;;;36.49;11.45;102882.44;5285008;28;20100;-80
2022/03/24 09:58:07;;;;;;;20.17;18.10;;;;;;;36.15;11.94;102882.72;5284300;28;20537;-80
2022/03/24 10:00:39;;;;;;;20.93;17.07;;;;;;;35.84;12.00;102885.31;5281084;28;20108;-79
2022/03/24 10:03:14;;;;;;;17.88;16.17;;;;;;;37.10;12.00;102887.44;5284914;28;20272;-79
2022/03/24 10:06:07;;;;;;;;;;;;;;;41.29;11.58;102887.25;5285796;28;20103;-79
2022/03/24 10:08:38;;;;;;;17.30;15.70;;;;;;;37.62;11.22;102888.34;5265702;28;20365;-79
2022/03/24 10:11:09;;;;;;;25.02;16.40;;;;;;;37.15;10.94;102893.00;5258441;28;20167;-80
2022/03/24 10:13:44;;;;;;;18.77;16.98;;;;;;;37.57;11.02;102880.00;5278735;28;20428;-79
2022/03/24 10:16:33;;;;;;;18.45;16.70;;;;;;;39.37;11.83;102882.31;5284364;28;20029;-79
2022/03/24 10:19:06;;;;;;;17.83;16.23;;;;;;;38.39;10.43;102874.41;5283458;28;20023;-80
2022/03/24 10:21:40;;;;;;;15.55;14.15;;;;;;;38.04;10.07;102876.13;5284915;28;20032;-79
2022/03/24 10:24:20;;;;;;;15.45;12.65;;;;;;;40.05;9.13;102867.53;5265224;28;20119;-80
2022/03/24 10:27:00;;;;;;;14.10;12.90;;;;;;;38.71;10.42;102870.41;5283493;28;20043;-80
2022/03/24 10:29:34;;;;;;;15.25;13.88;;;;;;;39.33;9.50;102865.31;5282838;28;20041;-80
2022/03/24 10:32:14;;;;;;;15.93;14.52;;;;;;;38.35;10.53;102871.34;5283939;28;20055;-80
2022/03/24 10:34:46;;;;;;;15.35;13.90;;;;;;;37.95;9.98;102864.72;5285002;28;20021;-79
2022/03/24 10:37:19;;;;;;;15.90;14.38;;;;;;;38.64;10.49;102861.50;5265785;28;20060;-79
2022/03/24 10:40:04;;;;;;;15.23;13.80;;;;;;;39.54;9.93;102862.38;5265668;28;20075;-79
2022/03/24 10:42:37;;;;;;;16.75;15.00;;;;;;;40.21;9.16;102866.22;5280334;28;20074;-80
2022/03/24 10:45:15;;;;;;;16.30;14.48;;;;;;;41.55;8.54;102865.28;5284018;28;20021;-79
2022/03/24 10:47:52;;;;;;;16.48;14.85;;;;;;;42.07;8.83;102865.19;5283493;28;20064;-80
2022/03/24 10:50:39;;;;;;;17.85;15.98;;;;;;;41.34;9.84;102850.78;5282729;28;20081;-79
2022/03/24 10:53:13;;;;;;;15.98;14.38;;;;;;;39.41;10.39;102861.06;5287330;28;20457;-79
2022/03/24 10:55:45;;;;;;;17.20;15.60;;;;;;;39.60;9.44;102856.47;5264892;28;20021;-80
2022/03/24 10:58:39;;;;;;;16.77;15.07;;;;;;;41.47;8.55;102856.75;5257275;28;20030;-80
2022/03/24 11:01:14;;;;;;;16.58;15.00;;;;;;;40.99;8.78;102853.00;5278512;28;20045;-80
2022/03/24 11:03:46;;;;;;;16.13;14.55;;;;;;;39.36;8.80;102852.75;5281180;28;20025;-80
2022/03/24 11:06:20;;;;;;;15.45;13.98;;;;;;;40.74;8.66;102856.09;5264595;28;20373;-80
2022/03/24 11:09:01;;;;;;;15.38;13.77;;;;;;;41.97;8.10;102851.38;5280504;28;20164;-80
2022/03/24 11:11:38;;;;;;;15.05;12.85;;;;;;;40.62;8.65;102853.75;5280514;28;20025;-80
2022/03/24 11:14:12;;;;;;;15.27;13.07;;;;;;;39.74;9.26;102851.03;5262450;28;20098;-80
2022/03/24 11:16:46;;;;;;;18.23;13.77;;;;;;;41.15;8.22;102849.94;5282103;28;20036;-80
2022/03/24 11:19:17;;;;;;;15.48;13.88;;;;;;;39.14;8.87;102831.69;5260050;28;20096;-80
2022/03/24 11:21:48;;;;;;;16.25;14.70;;;;;;;39.92;8.69;102854.22;5263355;28;20033;-80
2022/03/24 11:24:20;;;;;;;18.17;15.07;;;;;;;39.55;9.75;102844.53;5281229;28;20059;-80
2022/03/24 11:26:51;;;;;;;16.58;14.65;;;;;;;39.03;10.07;102842.09;5264176;28;20482;-80
2022/03/24 11:29:23;;;;;;;16.38;14.88;;;;;;;40.45;9.09;102843.06;5277768;28;20127;-80
2022/03/24 11:31:54;;;;;;;18.25;15.68;;;;;;;40.67;8.75;102839.69;5277173;28;20029;-79
2022/03/24 11:34:26;;;;;;;15.77;14.15;;;;;;;40.97;8.71;102838.47;5276749;28;20474;-80